Time;durP1;ratioP1;P1;durP2;ratioP2;P2;SDS_P1;SDS_P2;PMS_P1;PMS_P2;Temp;Humidity;BMP_temperature;BMP_pressure;BME280_temperature;BME280_humidity;BME280_pressure;Samples;Min_cycle;Max_cycle;Signal;HPM_P1;HPM_P2
2021/09/27 00:03:15;;;;;;;7.13;6.43;;;;;;;21.19;65.56;101507.44;4654751;30;20043;-82
2021/09/27 00:06:20;;;;;;;7.80;6.45;;;;;;;21.19;65.57;101500.47;4654774;30;20141;-82
2021/09/27 00:09:42;;;;;;;6.95;6.35;;;;;;;21.19;65.63;101504.81;4646760;30;20117;-82
2021/09/27 00:16:18;;;;;;;6.60;6.00;;;;;;;21.19;65.68;101491.72;4618985;31;20163;-82
2021/09/27 00:22:24;;;;;;;6.50;5.90;;;;;;;21.18;65.78;101483.00;4864838;24;20055;-80
2021/09/27 00:25:32;;;;;;;6.30;5.70;;;;;;;21.18;65.83;101477.78;4780401;29;20038;-81
2021/09/27 00:48:03;;;;;;;6.60;5.85;;;;;;;21.17;65.83;101466.44;3962550;28;20069;-81
2021/09/27 00:51:27;;;;;;;6.18;5.63;;;;;;;21.19;65.58;101462.94;4703630;30;20295;-80
2021/09/27 00:54:35;;;;;;;6.18;5.57;;;;;;;21.20;65.54;101454.22;4640997;30;20094;-82
2021/09/27 00:57:32;;;;;;;6.20;5.65;;;;;;;21.19;65.81;101448.13;4664493;30;20090;-81
2021/09/27 01:00:09;;;;;;;6.00;5.40;;;;;;;21.18;65.77;101438.53;4649424;30;20030;-80
2021/09/27 01:10:17;;;;;;;;;;;;;;;;;;;;;
2021/09/27 01:13:29;;;;;;;7.32;6.63;;;;;;;21.17;65.57;101440.28;4584290;31;20101;-80
2021/09/27 01:16:33;;;;;;;6.47;5.65;;;;;;;21.19;65.47;101439.38;4597168;31;20056;-81
2021/09/27 01:19:38;;;;;;;5.93;5.32;;;;;;;21.19;65.56;101447.22;4653171;30;20031;-81
2021/09/27 01:26:29;;;;;;;6.72;5.93;;;;;;;21.20;65.28;101443.75;4637240;31;20054;-81
2021/09/27 01:32:44;;;;;;;6.68;6.07;;;;;;;21.20;65.27;101425.41;4637413;31;20064;-80
2021/09/27 03:03:54;;;;;;;5.35;4.85;;;;;;;21.22;64.59;101418.41;4775155;30;20066;-81
2021/09/27 03:10:38;;;;;;;5.30;4.80;;;;;;;21.22;64.44;101400.09;4704936;30;20052;-81
2021/09/27 03:20:39;;;;;;;5.90;5.03;;;;;;;21.22;64.23;101400.09;4684517;30;20033;-82
2021/09/27 03:24:03;;;;;;;5.28;4.78;;;;;;;21.22;64.32;101387.84;4651412;31;20036;-82
2021/09/27 03:26:46;;;;;;;5.25;4.75;;;;;;;21.23;64.35;101386.09;4660448;30;20649;-81
2021/09/27 04:06:34;;;;;;;5.22;4.53;;;;;;;21.22;63.91;101377.38;4720217;30;20057;-81
2021/09/27 04:09:47;;;;;;;7.65;5.63;;;;;;;21.23;64.07;101383.47;4717398;30;20100;-81
2021/09/27 04:12:53;;;;;;;5.70;5.10;;;;;;;21.23;64.02;101383.47;4716681;30;20037;-81
2021/09/27 04:15:53;;;;;;;5.75;5.05;;;;;;;21.22;63.98;101373.91;4700025;30;20499;-79
2021/09/27 04:18:58;;;;;;;5.10;4.60;;;;;;;21.22;64.04;101374.78;4659655;30;20052;-78
2021/09/27 04:21:39;;;;;;;6.07;4.82;;;;;;;21.22;63.95;101373.91;4639656;30;20046;-79
2021/09/27 04:24:48;;;;;;;5.45;4.93;;;;;;;21.22;63.93;101376.53;4659118;30;20043;-79
2021/09/27 04:27:35;;;;;;;5.40;4.90;;;;;;;21.21;64.01;101373.06;4672909;30;20053;-79
2021/09/27 04:30:28;;;;;;;6.53;4.68;;;;;;;21.20;64.08;101371.31;4692832;30;20045;-79
2021/09/27 04:33:15;;;;;;;6.57;4.75;;;;;;;21.22;64.05;101371.28;4706971;30;20064;-79
2021/09/27 04:36:01;;;;;;;6.28;5.30;;;;;;;21.21;63.79;101366.94;4706879;30;20451;-79
2021/09/27 04:38:31;;;;;;;7.57;5.40;;;;;;;21.19;64.07;101359.13;4706494;30;20045;-79
2021/09/27 04:40:59;;;;;;;5.40;4.90;;;;;;;21.20;63.93;101355.59;4706708;30;20426;-79
2021/09/27 04:44:00;;;;;;;6.80;5.15;;;;;;;21.18;63.91;101357.38;4706743;30;20033;-79
2021/09/27 04:46:53;;;;;;;6.72;5.88;;;;;;;21.20;63.96;101353.00;4706917;30;20041;-79
2021/09/27 04:49:40;;;;;;;5.88;5.35;;;;;;;21.19;63.85;101359.13;4706169;30;20038;-79
2021/09/27 04:52:36;;;;;;;5.45;4.95;;;;;;;21.19;63.86;101353.00;4711605;30;20517;-79
2021/09/27 04:55:36;;;;;;;6.20;5.40;;;;;;;21.20;63.96;101344.28;4727589;30;20037;-79
2021/09/27 04:58:26;;;;;;;6.10;5.43;;;;;;;21.20;64.00;101344.28;4729742;30;20497;-79
2021/09/27 05:00:57;;;;;;;5.45;4.95;;;;;;;21.20;63.83;101341.66;4734028;30;20070;-79
2021/09/27 05:03:45;;;;;;;5.65;5.00;;;;;;;21.19;63.90;101346.03;4732596;30;20032;-78
2021/09/27 05:06:32;;;;;;;5.43;4.60;;;;;;;21.20;63.89;101353.00;4728468;30;20112;-78
2021/09/27 05:09:05;;;;;;;5.95;5.35;;;;;;;21.20;63.69;101355.59;4748057;30;20033;-81
2021/09/27 05:11:56;;;;;;;5.97;4.30;;;;;;;21.21;63.87;101351.22;4803983;24;20032;-78
2021/09/27 05:15:00;;;;;;;9.95;6.38;;;;;;;21.20;63.70;101345.13;4783055;30;20104;-80
2021/09/27 05:17:50;;;;;;;16.95;8.10;;;;;;;21.17;63.62;101339.97;4781574;30;20464;-78
2021/09/27 05:21:13;;;;;;;16.33;9.25;;;;;;;21.15;63.72;101336.50;4762848;30;20047;-79
2021/09/27 05:24:19;;;;;;;9.25;6.68;;;;;;;21.13;63.72;101331.28;5280296;24;20063;-80
2021/09/27 05:26:57;;;;;;;14.02;7.30;;;;;;;21.14;64.05;101330.41;4783476;30;20055;-77
2021/09/27 05:29:48;;;;;;;11.88;6.32;;;;;;;21.16;64.10;101333.00;4783617;30;20031;-79
2021/09/27 05:32:29;;;;;;;11.52;7.28;;;;;;;21.12;64.11;101337.44;4783777;30;20034;-78
2021/09/27 05:35:33;;;;;;;10.75;7.78;;;;;;;21.06;64.02;101324.44;4783465;30;20037;-80
2021/09/27 05:38:09;;;;;;;;;;;;;;;20.94;63.78;101328.09;4784013;30;20368;-80
2021/09/27 05:40:57;;;;;;;20.95;15.63;;;;;;;20.86;63.32;101314.31;4796995;30;19913;-78
2021/09/27 06:03:27;;;;;;;20.35;17.45;;;;;;;20.69;62.42;101311.09;4773759;30;20051;-81
2021/09/27 06:06:22;;;;;;;17.35;14.80;;;;;;;20.80;62.47;101309.16;4771775;30;20039;-81
2021/09/27 06:09:18;;;;;;;21.25;14.57;;;;;;;20.90;62.48;101312.47;4740023;30;20044;-81
2021/09/27 06:21:12;;;;;;;17.80;12.30;;;;;;;21.02;62.17;101312.28;4901460;24;20067;-80
2021/09/27 06:23:47;;;;;;;15.63;11.75;;;;;;;21.03;62.18;101311.38;4790338;30;20051;-80
2021/09/27 06:26:15;;;;;;;12.52;11.23;;;;;;;21.04;61.99;101304.44;4784324;30;20121;-80
2021/09/27 06:29:25;;;;;;;14.05;11.35;;;;;;;21.05;62.00;101314.00;4798429;30;20525;-80
2021/09/27 06:32:04;;;;;;;14.93;10.85;;;;;;;21.07;61.88;101318.31;4772967;30;20099;-80
2021/09/27 06:34:42;;;;;;;21.45;17.55;;;;;;;20.93;61.41;101317.69;4779170;30;20042;-79
2021/09/27 06:37:07;;;;;;;20.40;17.83;;;;;;;20.79;61.26;101312.66;4779846;30;20031;-80
2021/09/27 06:39:33;;;;;;;18.88;16.73;;;;;;;20.79;61.62;101312.66;4750383;30;20036;-79
2021/09/27 06:41:59;;;;;;;20.95;18.70;;;;;;;20.73;61.14;101311.00;4763908;30;20550;-79
2021/09/27 06:44:25;;;;;;;23.25;18.73;;;;;;;20.68;61.36;101304.09;4779056;30;20070;-79
2021/09/27 06:46:52;;;;;;;22.00;19.45;;;;;;;20.55;60.89;101295.53;4796082;30;20031;-80
2021/09/27 09:42:12;;;;;;;7.68;6.97;;;;;;;21.18;60.51;101145.41;5654581;24;20233;31
2021/09/27 10:44:29;;;;;;;6.30;5.18;;;;;;;21.28;59.90;101096.34;4866355;24;20130;-78
2021/09/27 10:47:02;;;;;;;6.72;5.07;;;;;;;21.27;59.97;101092.00;4760950;30;20027;-78
2021/09/27 10:49:40;;;;;;;6.78;4.75;;;;;;;21.29;59.77;101092.84;4759808;30;20024;-78
2021/09/27 10:52:24;;;;;;;6.43;5.10;;;;;;;21.27;59.85;101095.47;4760239;30;20071;-78
2021/09/27 10:55:08;;;;;;;6.70;5.20;;;;;;;21.30;59.83;101094.56;4762598;30;20054;-79
2021/09/27 10:58:01;;;;;;;5.32;4.53;;;;;;;21.30;59.76;101090.19;4793123;30;20027;-79
2021/09/27 11:00:35;;;;;;;6.30;4.85;;;;;;;21.33;59.81;101087.50;4776008;30;20483;-78
2021/09/27 11:03:34;;;;;;;6.60;5.00;;;;;;;21.37;59.52;101083.06;4776849;30;20059;-78
2021/09/27 11:06:21;;;;;;;6.25;4.80;;;;;;;21.39;59.56;101086.50;4775684;30;20104;-78
2021/09/27 11:08:50;;;;;;;5.85;4.40;;;;;;;21.41;59.48;101074.28;4763204;30;20062;-80
2021/09/27 11:11:28;;;;;;;7.07;4.43;;;;;;;21.42;59.50;101076.00;4759873;30;20039;-79
2021/09/27 11:13:58;;;;;;;8.98;5.30;;;;;;;21.38;59.50;101076.91;4772669;30;20035;-78
2021/09/27 11:16:36;;;;;;;7.00;4.57;;;;;;;21.36;59.02;101071.75;4762150;30;20044;-80
2021/09/27 11:19:11;;;;;;;8.77;4.78;;;;;;;21.35;59.26;101077.84;4775428;30;20042;-80
2021/09/27 11:21:36;;;;;;;7.05;4.63;;;;;;;21.34;59.12;101076.16;4790018;30;20043;-80
2021/09/27 11:24:47;;;;;;;7.80;4.55;;;;;;;21.36;59.07;101066.50;4777903;30;20038;-79
2021/09/27 11:27:17;;;;;;;6.53;4.00;;;;;;;21.36;59.21;101061.28;4773905;30;20043;-79
2021/09/27 11:30:09;;;;;;;7.55;4.10;;;;;;;21.37;59.01;101057.75;4792310;30;20035;-80
2021/09/27 11:32:42;;;;;;;9.13;3.90;;;;;;;21.35;58.69;101059.53;4789173;30;20046;-79
2021/09/27 11:35:08;;;;;;;5.57;3.70;;;;;;;21.33;58.59;101050.00;4774975;30;20400;-80
2021/09/27 11:37:55;;;;;;;4.93;3.50;;;;;;;21.35;58.94;101058.69;4761339;30;20289;-79
2021/09/27 11:40:42;;;;;;;4.25;3.10;;;;;;;21.40;58.68;101061.19;4761244;30;20031;-79
2021/09/27 11:43:32;;;;;;;6.75;3.38;;;;;;;21.40;58.58;101050.72;4777596;30;20059;-79
2021/09/27 11:46:05;;;;;;;6.28;3.50;;;;;;;21.40;58.47;101063.81;4760616;30;20035;-78
2021/09/27 11:48:42;;;;;;;5.40;3.22;;;;;;;21.41;58.46;101049.84;4759682;30;20031;-79
2021/09/27 11:51:08;;;;;;;5.60;3.10;;;;;;;21.39;58.17;101055.09;4778812;30;20035;-79
2021/09/27 11:54:02;;;;;;;6.00;3.30;;;;;;;21.36;58.28;101056.03;4778297;30;20470;-78
2021/09/27 11:56:54;;;;;;;6.43;3.00;;;;;;;21.33;58.07;101061.31;4779200;30;20031;-78
2021/09/27 11:59:50;;;;;;;4.85;3.17;;;;;;;21.31;58.09;101057.00;4757205;30;20036;-79
2021/09/27 12:02:25;;;;;;;5.13;3.25;;;;;;;21.29;58.15;101053.56;4772274;30;20051;-79
2021/09/27 12:05:09;;;;;;;6.20;2.80;;;;;;;21.29;57.91;101062.28;4772313;30;20109;-79
2021/09/27 12:07:42;;;;;;;4.55;2.85;;;;;;;21.28;57.71;101057.09;4758254;30;20034;-79
2021/09/27 12:10:17;;;;;;;3.97;2.70;;;;;;;21.27;57.91;101079.75;4758505;30;20030;-80
2021/09/27 12:12:52;;;;;;;5.38;3.10;;;;;;;21.26;57.74;101066.72;4759507;30;20059;-78
2021/09/27 12:15:25;;;;;;;3.53;2.25;;;;;;;21.29;57.69;101082.38;4765124;30;20551;-79
2021/09/27 12:17:51;;;;;;;7.22;2.92;;;;;;;21.32;57.82;101075.31;4785117;30;20040;-79
2021/09/27 12:20:26;;;;;;;4.72;2.60;;;;;;;21.32;58.08;101066.59;4747019;30;20073;-79
2021/09/27 12:22:55;;;;;;;6.88;2.50;;;;;;;21.30;58.03;101069.25;4761283;30;20092;-78
2021/09/27 12:25:34;;;;;;;5.40;2.30;;;;;;;21.30;58.01;101071.88;4769195;30;20027;-79
2021/09/27 12:28:07;;;;;;;3.38;2.60;;;;;;;21.32;58.35;101069.22;4777905;30;20031;-79
2021/09/27 12:30:37;;;;;;;6.63;2.92;;;;;;;21.36;58.07;101068.22;4775470;30;20031;-79
2021/09/27 12:33:16;;;;;;;5.07;2.70;;;;;;;21.40;58.24;101066.44;4777149;30;20097;-79
2021/09/27 12:35:47;;;;;;;6.25;2.65;;;;;;;21.40;58.24;101067.28;4776710;30;20032;-79
2021/09/27 12:38:18;;;;;;;5.15;3.08;;;;;;;21.42;57.97;101067.28;4759452;30;20530;-79
2021/09/27 12:40:48;;;;;;;6.50;2.80;;;;;;;21.42;58.38;101067.28;4759796;30;20031;-79
2021/09/27 12:43:19;;;;;;;6.65;2.75;;;;;;;21.42;58.52;101072.53;4738184;30;1160640;-79
2021/09/27 12:46:12;;;;;;;5.32;2.80;;;;;;;21.42;58.29;101080.38;4759394;30;20121;-79
2021/09/27 12:48:40;;;;;;;3.90;2.95;;;;;;;21.41;58.55;101086.50;4755824;30;20036;-79
2021/09/27 12:51:19;;;;;;;5.70;2.90;;;;;;;21.40;58.69;101103.06;4759594;30;20059;-80
2021/09/27 12:53:57;;;;;;;5.38;2.60;;;;;;;21.40;58.96;101111.78;4778672;30;20487;-79
2021/09/27 12:56:24;;;;;;;4.38;2.63;;;;;;;21.41;58.65;101110.06;4776260;30;20046;-79
2021/09/27 12:58:57;;;;;;;3.88;2.80;;;;;;;21.41;58.91;101108.31;4777193;30;20032;-78
2021/09/27 13:01:24;;;;;;;7.28;2.90;;;;;;;21.41;59.03;101108.31;4775670;30;20034;-79
2021/09/27 13:04:07;;;;;;;3.38;2.67;;;;;;;21.41;58.77;101103.09;4762716;30;20047;-79
2021/09/27 13:06:36;;;;;;;4.28;3.08;;;;;;;21.40;58.96;101098.69;4778079;30;20131;-79
2021/09/27 13:09:11;;;;;;;3.15;2.75;;;;;;;21.39;59.15;101086.50;4762107;30;20464;-78
2021/09/27 13:11:48;;;;;;;3.17;2.53;;;;;;;21.41;59.08;101094.34;4761873;30;20040;-78
2021/09/27 13:14:25;;;;;;;4.75;2.78;;;;;;;21.39;59.23;101089.13;4778434;30;20031;-78
2021/09/27 13:17:07;;;;;;;5.38;2.60;;;;;;;21.39;59.09;101104.00;4761735;30;20031;-78
2021/09/27 13:19:44;;;;;;;4.07;2.50;;;;;;;21.38;59.24;101095.25;4760941;30;20024;-78
2021/09/27 13:22:23;;;;;;;4.55;2.60;;;;;;;21.36;59.36;101116.25;4761317;30;20451;-78
2021/09/27 13:25:17;;;;;;;2.97;2.50;;;;;;;21.36;59.23;101110.13;4757323;30;20126;-78
2021/09/27 13:27:52;;;;;;;3.58;2.40;;;;;;;21.37;59.50;101117.94;4756302;30;20395;-78
2021/09/27 13:30:27;;;;;;;4.45;2.47;;;;;;;21.38;59.39;101118.81;4759382;30;20063;-78
2021/09/27 13:32:57;;;;;;;3.10;2.30;;;;;;;21.39;59.21;101128.41;4776370;30;20043;-78
2021/09/27 13:35:38;;;;;;;4.82;2.55;;;;;;;21.38;59.30;101131.91;4761682;30;20558;-77
2021/09/27 13:38:06;;;;;;;2.90;2.20;;;;;;;21.40;59.34;101131.88;4760314;30;20449;-78
2021/09/27 13:41:23;;;;;;;3.42;2.15;;;;;;;21.41;59.56;101131.88;4760387;30;20112;-77
2021/09/27 13:43:57;;;;;;;3.88;2.22;;;;;;;21.42;59.29;101128.34;4773837;30;20059;-77
2021/09/27 13:46:26;;;;;;;2.67;2.30;;;;;;;21.41;59.49;101134.50;4758584;30;20028;-77
2021/09/27 13:48:51;;;;;;;3.95;2.40;;;;;;;21.41;59.58;101139.75;4774396;30;20032;-77
2021/09/27 13:51:20;;;;;;;4.57;2.28;;;;;;;21.42;59.55;101132.75;4756444;30;20036;-77
2021/09/27 13:53:50;;;;;;;2.97;2.40;;;;;;;21.42;59.50;101144.06;4758956;30;20126;-77
2021/09/27 13:56:24;;;;;;;4.88;2.25;;;;;;;21.42;59.42;101140.59;4759758;30;20031;-77
2021/09/27 13:58:52;;;;;;;2.20;1.98;;;;;;;21.42;59.52;101156.31;4759821;30;20032;-78
2021/09/27 14:01:21;;;;;;;2.55;2.10;;;;;;;21.42;59.84;101169.41;4744917;30;20095;-78
2021/09/27 14:03:46;;;;;;;2.35;1.98;;;;;;;21.40;59.66;101185.09;4743942;30;20042;-78
2021/09/27 14:06:14;;;;;;;2.70;2.40;;;;;;;21.40;59.77;101177.22;4742493;30;20126;-77
2021/09/27 14:08:39;;;;;;;4.07;2.30;;;;;;;21.40;59.56;101182.47;4758220;30;20016;-78
2021/09/27 14:11:05;;;;;;;3.13;2.17;;;;;;;21.37;59.54;101183.41;4757945;30;20097;-79
2021/09/27 14:13:31;;;;;;;3.53;2.20;;;;;;;21.38;59.92;101194.72;4756950;30;20032;-78
2021/09/27 14:16:05;;;;;;;2.75;2.00;;;;;;;21.38;59.92;101194.72;4775436;30;20040;-79
2021/09/27 14:18:32;;;;;;;3.25;2.25;;;;;;;21.39;59.86;101209.56;4759971;30;20027;-78
2021/09/27 14:20:58;;;;;;;2.45;2.10;;;;;;;21.40;59.72;101206.03;4760815;30;20050;-78
2021/09/27 14:23:24;;;;;;;4.57;2.47;;;;;;;21.40;59.65;101216.50;4758440;30;20499;-78
2021/09/27 14:25:51;;;;;;;4.05;2.25;;;;;;;21.40;59.73;101224.34;4762659;30;20032;-78
2021/09/27 14:28:18;;;;;;;5.90;2.42;;;;;;;21.41;59.85;101218.28;4761232;30;20055;-77
2021/09/27 14:30:45;;;;;;;3.50;2.40;;;;;;;21.43;60.00;101228.72;4762361;30;20032;-79
2021/09/27 14:33:11;;;;;;;4.47;2.30;;;;;;;21.43;59.65;101221.72;4761417;30;20035;-79
2021/09/27 14:35:37;;;;;;;4.50;2.50;;;;;;;21.43;59.76;101226.13;4762640;30;20089;-79
2021/09/27 14:38:05;;;;;;;6.03;2.45;;;;;;;21.42;59.80;101235.69;4780307;30;20036;-78
2021/09/27 14:40:31;;;;;;;5.25;2.47;;;;;;;21.41;59.62;101247.09;4778420;30;20034;-79
2021/09/27 14:42:56;;;;;;;4.65;2.45;;;;;;;21.42;59.71;101261.88;4746392;30;20055;-79
2021/09/27 14:45:22;;;;;;;6.45;2.60;;;;;;;21.46;59.93;101275.78;4761412;30;20043;-79
2021/09/27 14:47:48;;;;;;;3.92;2.40;;;;;;;21.47;59.88;101282.75;4747644;30;20039;-79
2021/09/27 14:50:22;;;;;;;3.38;1.95;;;;;;;21.47;60.03;101283.63;4761147;30;20036;-79
2021/09/27 14:52:47;;;;;;;;;;;;;;;;;;4762385;30;20032;-79
2021/09/27 14:55:13;;;;;;;3.10;2.03;;;;;;;21.50;59.68;101291.41;4761096;30;19957;-79
2021/09/27 14:57:39;;;;;;;3.80;2.17;;;;;;;21.47;59.73;101295.84;4761535;30;20032;-79
2021/09/27 15:00:08;;;;;;;3.28;2.00;;;;;;;21.46;59.68;101307.22;4761961;30;20046;-79
2021/09/27 15:02:33;;;;;;;3.25;2.05;;;;;;;21.43;59.69;101316.00;4761516;30;20492;-79
2021/09/27 15:04:59;;;;;;;3.65;2.00;;;;;;;21.43;59.80;101318.59;4763514;30;20031;-79
2021/09/27 15:07:24;;;;;;;5.32;2.63;;;;;;;21.46;59.85;101325.53;4749201;30;20230;-79
2021/09/27 15:09:50;;;;;;;21.52;6.38;;;;;;;21.54;59.60;101339.38;4749072;30;20127;-78
2021/09/27 15:12:15;;;;;;;34.38;8.32;;;;;;;21.56;59.59;101348.91;4763754;30;20135;-79
2021/09/27 15:14:41;;;;;;;40.08;10.35;;;;;;;21.59;59.47;101353.22;4751421;30;20090;-80
2021/09/27 15:17:06;;;;;;;32.67;9.20;;;;;;;21.60;59.43;101364.56;4736412;30;20040;-79
2021/09/27 15:19:32;;;;;;;28.85;8.00;;;;;;;21.60;59.35;101368.06;4765012;30;20082;-80
2021/09/27 15:21:58;;;;;;;29.40;8.23;;;;;;;21.62;59.33;101373.25;4749005;30;20038;-80
2021/09/27 15:24:24;;;;;;;23.60;7.25;;;;;;;21.63;59.55;101380.25;4752025;30;20043;-80
2021/09/27 15:26:55;;;;;;;26.38;7.30;;;;;;;21.62;59.74;101381.13;4767517;30;20023;-81
2021/09/27 15:29:31;;;;;;;21.33;6.50;;;;;;;21.61;59.53;101398.59;4764718;30;20032;-80
2021/09/27 15:32:03;;;;;;;16.67;5.85;;;;;;;21.60;59.71;101404.72;4748978;30;20044;-81
2021/09/27 15:34:38;;;;;;;20.92;6.88;;;;;;;21.60;59.53;101409.97;4763012;30;20051;-81
2021/09/27 15:37:09;;;;;;;17.58;6.00;;;;;;;21.57;59.56;101412.63;4747614;30;20040;-81
2021/09/27 15:39:36;;;;;;;15.18;5.03;;;;;;;21.55;59.05;101419.63;4764564;30;20059;-81
2021/09/27 15:42:03;;;;;;;15.85;4.90;;;;;;;21.55;59.40;101414.41;4779638;30;20039;-81
2021/09/27 15:44:28;;;;;;;19.42;5.45;;;;;;;21.54;59.39;101421.41;4778240;30;20063;-80
2021/09/27 15:47:05;;;;;;;13.95;5.28;;;;;;;21.55;59.28;101436.22;4779807;30;20515;-81
2021/09/27 15:49:32;;;;;;;16.70;5.50;;;;;;;21.54;59.59;101428.41;4764724;30;20024;-81
2021/09/27 15:51:59;;;;;;;14.70;5.00;;;;;;;21.53;59.40;101445.00;4782063;30;20027;-79
2021/09/27 15:54:25;;;;;;;20.52;5.22;;;;;;;21.53;59.53;101447.59;4775829;30;20054;-81
2021/09/27 15:56:52;;;;;;;18.00;5.35;;;;;;;21.51;59.53;101449.38;4778615;30;20027;-80
2021/09/27 15:59:29;;;;;;;20.73;4.85;;;;;;;21.50;59.17;101458.16;4791193;30;20032;-80
2021/09/27 16:01:56;;;;;;;12.35;4.72;;;;;;;21.47;59.07;101459.06;4789057;30;20036;-80
2021/09/27 16:04:27;;;;;;;13.45;4.50;;;;;;;21.51;59.57;101465.97;4792820;30;20036;-80
2021/09/27 16:06:59;;;;;;;14.20;4.13;;;;;;;21.50;59.16;101468.63;4790646;30;20119;-80
2021/09/27 16:09:24;;;;;;;10.35;3.83;;;;;;;21.46;59.30;101480.88;4768517;30;20032;-79
2021/09/27 16:11:50;;;;;;;11.98;3.70;;;;;;;21.47;59.21;101485.25;4750085;30;20036;-79
2021/09/27 16:14:16;;;;;;;10.10;4.18;;;;;;;21.46;59.17;101482.66;4765120;30;20047;-80
2021/09/27 16:16:42;;;;;;;9.80;3.70;;;;;;;21.46;59.47;101490.50;4748271;30;20038;-79
2021/09/27 16:19:12;;;;;;;9.32;3.63;;;;;;;21.41;58.66;101495.81;4746353;30;20093;-79
2021/09/27 16:21:44;;;;;;;11.45;3.90;;;;;;;21.40;58.97;101501.88;4762559;30;20028;-80
2021/09/27 16:24:15;;;;;;;9.27;3.47;;;;;;;21.41;58.97;101503.66;4778852;30;20047;-79
2021/09/27 17:56:59;;;;;;;5.43;1.90;;;;;;;21.30;58.79;101667.84;4808657;24;20104;-82
2021/09/27 18:11:58;;;;;;;19.00;5.85;;;;;;;21.21;57.75;101681.03;4911037;24;20067;-85
2021/09/27 18:14:23;;;;;;;17.13;4.82;;;;;;;21.11;58.33;101696.84;4793436;29;20092;-80
2021/09/27 19:28:20;;;;;;;5.55;1.92;;;;;;;20.70;55.69;101797.50;4964873;24;20064;-80
2021/09/27 19:30:54;;;;;;;;;;;;;;;20.72;55.53;101808.81;4735598;30;20045;-79
2021/09/27 19:33:47;;;;;;;4.90;1.80;;;;;;;20.72;55.54;101803.59;4748944;30;19945;-81
2021/09/27 19:36:28;;;;;;;5.60;1.90;;;;;;;20.71;55.55;101806.25;4752782;30;20033;-80
2021/09/27 20:34:10;;;;;;;5.55;1.50;;;;;;;20.64;55.41;101888.22;5629965;24;20075;-81
2021/09/27 20:36:38;;;;;;;2.90;1.20;;;;;;;20.63;55.46;101889.09;4761312;30;20055;-81
2021/09/27 20:39:06;;;;;;;3.40;1.42;;;;;;;20.65;55.42;101895.19;4764623;30;20119;-81
2021/09/27 20:41:31;;;;;;;3.70;1.40;;;;;;;20.65;55.62;101903.03;4735719;30;20051;-81
2021/09/27 21:08:36;;;;;;;2.90;1.10;;;;;;;20.62;55.27;101940.56;4912227;24;20059;-82
2021/09/27 21:30:44;;;;;;;4.00;1.30;;;;;;;20.63;55.47;101960.59;5464105;24;20055;-83
2021/09/27 21:33:13;;;;;;;2.30;1.10;;;;;;;20.64;55.39;101956.22;4792528;30;20065;-82
2021/09/27 21:42:38;;;;;;;3.05;1.10;;;;;;;20.61;54.99;101966.69;4751731;30;20118;-82
2021/09/27 21:50:31;;;;;;;2.97;1.00;;;;;;;20.56;54.75;101971.94;5190749;24;20046;-84
2021/09/27 21:54:07;;;;;;;3.72;1.35;;;;;;;20.54;54.92;101979.75;4779301;29;20079;-82
2021/09/27 22:00:43;;;;;;;3.92;1.08;;;;;;;20.52;54.74;101981.50;4755770;30;20051;-81
2021/09/27 22:03:53;;;;;;;3.58;0.90;;;;;;;20.55;55.07;101988.47;4687839;30;20078;-82
2021/09/27 23:33:17;;;;;;;2.83;1.02;;;;;;;20.33;55.34;102053.03;5651008;24;20054;-83
2021/09/27 23:39:32;;;;;;;5.45;1.00;;;;;;;20.35;55.39;102052.16;4777746;30;20092;-85
2021/09/27 23:42:46;;;;;;;1.77;0.90;;;;;;;20.34;55.25;102053.03;4777932;30;20013;-85
2021/09/27 23:57:31;;;;;;;1.77;0.80;;;;;;;20.27;55.53;102067.00;4673300;30;20034;-84
